Time;durP1;ratioP1;P1;durP2;ratioP2;P2;SDS_P1;SDS_P2;PMS_P1;PMS_P2;Temp;Humidity;BMP_temperature;BMP_pressure;BME280_temperature;BME280_humidity;BME280_pressure;Samples;Min_cycle;Max_cycle;Signal;HPM_P1;HPM_P2
2021/12/04 00:01:46;;;;;;;0.75;0.50;;;19.50;58.60;;;;;;5054078;28;20029;-66
2021/12/04 00:04:11;;;;;;;0.52;0.20;;;19.50;58.60;;;;;;5052783;28;20020;-66
2021/12/04 00:06:39;;;;;;;0.50;0.28;;;19.50;58.60;;;;;;5052962;28;20085;-66
2021/12/04 00:09:05;;;;;;;0.95;0.30;;;19.50;58.70;;;;;;5053839;28;20021;-66
2021/12/04 00:11:37;;;;;;;1.02;0.40;;;19.50;58.70;;;;;;5052732;28;20025;-66
2021/12/04 00:14:03;;;;;;;0.47;0.30;;;19.50;59.70;;;;;;5053988;28;20033;-66
2021/12/04 00:16:28;;;;;;;1.13;0.35;;;19.50;58.70;;;;;;5053829;28;20051;-66
2021/12/04 00:18:54;;;;;;;0.52;0.30;;;19.50;58.80;;;;;;5053260;28;20029;-66
2021/12/04 00:21:19;;;;;;;0.35;0.22;;;19.50;58.80;;;;;;5053422;28;20065;-66
2021/12/04 00:23:45;;;;;;;0.75;0.30;;;19.50;58.90;;;;;;5051962;28;20044;-66
2021/12/04 00:26:10;;;;;;;0.13;0.13;;;19.50;58.80;;;;;;5053676;28;20459;-66
2021/12/04 00:28:36;;;;;;;0.98;0.30;;;19.50;58.90;;;;;;5053583;28;20022;-66
2021/12/04 00:31:07;;;;;;;1.33;0.40;;;19.50;58.80;;;;;;5052093;28;20025;-66
2021/12/04 00:33:35;;;;;;;0.95;0.47;;;19.50;58.90;;;;;;5053595;28;20044;-66
2021/12/04 00:36:07;;;;;;;0.77;0.30;;;19.50;58.90;;;;;;5053071;28;20041;-66
2021/12/04 00:49:20;;;;;;;0.60;0.32;;;19.40;59.20;;;;;;5038004;28;20032;-65
2021/12/04 00:51:53;;;;;;;0.93;0.45;;;19.40;59.20;;;;;;5035781;28;20017;-65
2021/12/04 00:54:18;;;;;;;;;;;19.40;59.10;;;;;;5053643;28;20025;-65
2021/12/04 00:56:44;;;;;;;0.30;0.30;;;19.30;59.20;;;;;;5052010;28;19927;-65
2021/12/04 00:59:10;;;;;;;0.47;0.38;;;19.30;59.20;;;;;;5053046;28;20032;-66
2021/12/04 01:01:40;;;;;;;0.50;0.28;;;19.30;59.20;;;;;;5051969;28;20029;-66
2021/12/04 01:04:16;;;;;;;1.13;0.60;;;19.40;60.20;;;;;;5051449;28;20021;-66
2021/12/04 01:06:41;;;;;;;1.40;0.30;;;19.40;59.30;;;;;;5053098;28;20581;-66
2021/12/04 01:09:08;;;;;;;0.77;0.30;;;19.30;59.20;;;;;;5051649;28;20029;-66
2021/12/04 01:11:33;;;;;;;0.60;0.43;;;19.40;59.30;;;;;;5053043;28;20032;-66
2021/12/04 01:13:59;;;;;;;0.88;0.30;;;19.30;59.20;;;;;;5052728;28;20028;-65
2021/12/04 01:16:25;;;;;;;1.05;0.40;;;19.40;59.20;;;;;;5051612;28;20029;-66
2021/12/04 01:18:50;;;;;;;1.30;0.40;;;19.40;59.20;;;;;;5052433;28;20108;-66
2021/12/04 01:21:16;;;;;;;0.47;0.30;;;19.40;59.30;;;;;;5052638;28;20029;-66
2021/12/04 01:23:41;;;;;;;0.73;0.47;;;19.40;59.20;;;;;;5052292;28;20045;-66
2021/12/04 01:26:07;;;;;;;1.13;0.68;;;19.40;59.30;;;;;;5052664;28;20025;-66
2021/12/04 01:28:33;;;;;;;0.30;0.20;;;19.40;59.30;;;;;;5052549;28;20546;-66
2021/12/04 01:30:58;;;;;;;1.20;0.35;;;19.40;59.30;;;;;;5052726;28;20071;-66
2021/12/04 01:33:24;;;;;;;0.90;0.30;;;19.40;59.30;;;;;;5052554;28;20025;-66
2021/12/04 01:35:50;;;;;;;0.57;0.38;;;19.40;59.30;;;;;;5052584;28;20032;-66
2021/12/04 01:38:15;;;;;;;2.47;0.43;;;19.40;59.30;;;;;;5052615;28;20433;-66
2021/12/04 01:40:43;;;;;;;0.98;0.50;;;19.40;59.30;;;;;;5034869;28;20040;-66
2021/12/04 01:43:09;;;;;;;1.13;0.40;;;19.40;59.30;;;;;;5049186;28;20045;-66
2021/12/04 01:45:34;;;;;;;1.10;0.40;;;19.40;59.40;;;;;;5037237;28;20053;-66
2021/12/04 01:48:01;;;;;;;0.98;0.40;;;19.40;59.40;;;;;;5043689;28;20033;-66
2021/12/04 01:50:27;;;;;;;1.00;0.40;;;19.40;59.40;;;;;;5042745;28;20087;-66
2021/12/04 01:52:56;;;;;;;0.90;0.43;;;19.40;59.40;;;;;;5052087;28;20025;-65
2021/12/04 01:55:32;;;;;;;1.63;0.40;;;19.40;59.40;;;;;;5035361;28;20033;-66
2021/12/04 01:58:00;;;;;;;0.47;0.30;;;19.40;59.40;;;;;;5043343;28;20017;-65
2021/12/04 02:00:27;;;;;;;0.50;0.40;;;19.40;59.40;;;;;;5042620;28;20052;-66
2021/12/04 02:02:53;;;;;;;2.08;0.60;;;19.40;59.50;;;;;;5036777;28;20041;-65
2021/12/04 02:05:18;;;;;;;0.43;0.28;;;19.40;59.40;;;;;;5048393;28;20459;-66
2021/12/04 02:07:45;;;;;;;0.70;0.35;;;19.40;59.40;;;;;;5037991;28;20017;-65
2021/12/04 02:10:11;;;;;;;0.57;0.30;;;19.40;59.50;;;;;;5050561;28;20033;-65
2021/12/04 02:12:37;;;;;;;0.82;0.43;;;19.40;59.50;;;;;;5038063;28;20087;-65
2021/12/04 02:15:03;;;;;;;0.70;0.30;;;19.40;59.50;;;;;;5048209;28;20115;-65
2021/12/04 02:17:28;;;;;;;0.55;0.20;;;19.50;59.60;;;;;;5048177;28;20017;-65
2021/12/04 02:19:54;;;;;;;0.25;0.25;;;19.50;59.60;;;;;;5038936;28;20025;-66
2021/12/04 02:22:19;;;;;;;0.55;0.30;;;19.40;59.50;;;;;;5040007;28;20053;-65
2021/12/04 02:24:45;;;;;;;0.40;0.25;;;19.40;59.50;;;;;;5045544;28;20025;-66
2021/12/04 02:27:13;;;;;;;2.05;0.30;;;19.40;59.50;;;;;;5034700;28;20026;-66
2021/12/04 02:29:46;;;;;;;0.93;0.40;;;19.40;59.50;;;;;;5036941;28;20020;-65
2021/12/04 02:32:12;;;;;;;1.83;0.45;;;19.50;59.60;;;;;;5046319;28;20079;-65
2021/12/04 02:34:38;;;;;;;0.68;0.35;;;19.50;59.60;;;;;;5048079;28;20021;-65
2021/12/04 02:37:04;;;;;;;0.45;0.35;;;19.50;59.60;;;;;;5038165;28;20022;-65
2021/12/04 02:39:33;;;;;;;0.60;0.13;;;19.40;59.50;;;;;;5050653;28;20029;-65
2021/12/04 02:41:59;;;;;;;0.80;0.30;;;19.50;59.60;;;;;;5025206;28;20013;-65
2021/12/04 02:44:45;;;;;;;0.52;0.28;;;19.50;59.70;;;;;;5054190;28;20454;-65
2021/12/04 02:47:11;;;;;;;0.35;0.20;;;19.50;59.60;;;;;;5055524;28;20025;-65
2021/12/04 02:49:36;;;;;;;0.57;0.40;;;19.50;59.70;;;;;;5054322;28;20585;-66
2021/12/04 02:52:06;;;;;;;1.20;0.28;;;19.50;59.70;;;;;;5055538;28;20460;-66
2021/12/04 02:54:32;;;;;;;0.20;0.13;;;19.40;59.60;;;;;;5054184;28;20023;-66
2021/12/04 02:56:58;;;;;;;1.27;0.43;;;19.40;59.60;;;;;;5037717;28;20092;-66
2021/12/04 02:59:24;;;;;;;1.83;0.30;;;19.40;59.70;;;;;;5053780;28;20021;-66
2021/12/04 03:01:53;;;;;;;2.00;0.50;;;19.40;59.60;;;;;;5055336;28;20045;-66
2021/12/04 03:04:19;;;;;;;0.35;0.35;;;19.40;59.60;;;;;;5055194;28;20112;-66
2021/12/04 03:06:46;;;;;;;1.00;0.40;;;19.40;59.70;;;;;;5055375;28;20097;-66
2021/12/04 03:09:13;;;;;;;1.95;0.68;;;19.40;59.70;;;;;;5054907;28;20098;-66
2021/12/04 03:11:38;;;;;;;0.98;0.38;;;19.40;59.70;;;;;;5055228;28;20462;-66
2021/12/04 03:14:04;;;;;;;1.35;0.60;;;19.40;59.70;;;;;;5054893;28;20040;-66
2021/12/04 03:16:31;;;;;;;1.13;0.40;;;19.40;59.70;;;;;;5054922;28;20075;-66
2021/12/04 03:18:57;;;;;;;0.88;0.35;;;19.40;59.70;;;;;;5037162;28;20106;-66
2021/12/04 03:21:22;;;;;;;3.40;0.68;;;19.40;59.70;;;;;;5054852;28;20456;-66
2021/12/04 03:23:53;;;;;;;1.15;0.60;;;19.40;59.70;;;;;;5054720;28;20053;-66
2021/12/04 03:26:19;;;;;;;2.67;0.60;;;19.40;59.70;;;;;;5053593;28;20032;-66
2021/12/04 03:28:45;;;;;;;1.08;0.60;;;19.40;59.80;;;;;;5053485;28;20070;-66
2021/12/04 03:31:16;;;;;;;3.05;0.68;;;19.40;59.80;;;;;;5054722;28;20017;-66
2021/12/04 03:42:06;;;;;;;1.90;0.60;;;19.30;59.80;;;;;;5032357;28;20068;-66
2021/12/04 03:44:32;;;;;;;1.35;0.40;;;19.30;59.80;;;;;;5032066;28;20025;-66
2021/12/04 03:46:59;;;;;;;1.50;0.55;;;19.30;59.70;;;;;;4999624;28;20414;-66
2021/12/04 03:49:24;;;;;;;2.42;0.93;;;19.30;59.80;;;;;;5032205;28;20033;-66
2021/12/04 03:51:50;;;;;;;3.97;0.93;;;19.30;59.70;;;;;;5032051;28;20210;-66
2021/12/04 03:54:16;;;;;;;2.10;0.75;;;19.30;59.70;;;;;;5032067;28;20034;-66
2021/12/04 03:56:41;;;;;;;1.85;0.98;;;19.30;59.80;;;;;;5032221;28;20025;-66
2021/12/04 03:59:08;;;;;;;2.35;0.70;;;19.30;59.80;;;;;;5031853;28;20034;-66
2021/12/04 04:01:33;;;;;;;3.97;0.80;;;19.30;59.80;;;;;;5031821;28;20078;-66
2021/12/04 04:03:59;;;;;;;2.75;1.10;;;19.30;59.80;;;;;;5031952;28;20033;-66
2021/12/04 04:06:25;;;;;;;1.60;0.55;;;19.30;59.80;;;;;;5031686;28;20073;-65
2021/12/04 04:08:51;;;;;;;2.42;0.80;;;19.30;59.80;;;;;;5015708;28;20160;-66
2021/12/04 04:11:16;;;;;;;2.53;0.63;;;19.30;59.80;;;;;;5031846;28;20177;-66
2021/12/04 04:13:44;;;;;;;3.03;0.93;;;19.30;59.80;;;;;;5048881;28;20533;-66
2021/12/04 04:16:10;;;;;;;2.70;0.90;;;19.30;59.80;;;;;;5052318;28;20066;-66
2021/12/04 04:18:36;;;;;;;2.78;0.82;;;19.30;59.80;;;;;;5052731;28;20060;-66
2021/12/04 04:21:01;;;;;;;3.22;0.88;;;19.30;59.80;;;;;;5053779;28;20063;-66
2021/12/04 04:23:27;;;;;;;2.70;0.77;;;19.30;59.80;;;;;;5053432;28;20083;-66
2021/12/04 04:25:53;;;;;;;2.38;0.77;;;19.30;59.80;;;;;;5035891;28;20017;-66
2021/12/04 04:28:18;;;;;;;1.52;0.65;;;19.30;59.80;;;;;;5052221;28;20056;-66
2021/12/04 04:30:44;;;;;;;2.60;1.00;;;19.30;59.80;;;;;;5053597;28;20032;-66
2021/12/04 04:33:13;;;;;;;2.03;0.80;;;19.20;59.80;;;;;;5052377;28;20356;-66
2021/12/04 04:35:39;;;;;;;2.20;0.82;;;19.30;59.80;;;;;;5053545;28;20021;-66
2021/12/04 04:38:54;;;;;;;1.95;0.70;;;19.20;59.70;;;;;;5053405;28;20036;-66
2021/12/04 05:00:08;;;;;;;3.10;0.98;;;19.20;59.90;;;;;;5048175;28;20435;-66
2021/12/04 05:13:18;;;;;;;2.33;0.80;;;19.20;59.90;;;;;;5010872;28;20026;-66
2021/12/04 05:20:55;;;;;;;2.35;0.90;;;19.20;59.90;;;;;;5003227;28;20113;-66
2021/12/04 05:23:23;;;;;;;3.40;0.90;;;19.20;59.90;;;;;;5026161;28;20042;-66
2021/12/04 05:25:50;;;;;;;2.75;0.82;;;19.20;59.90;;;;;;5030375;28;20122;-66
2021/12/04 05:28:16;;;;;;;2.88;0.82;;;19.20;59.90;;;;;;5030688;28;20021;-66
2021/12/04 05:30:41;;;;;;;2.17;0.70;;;19.20;59.80;;;;;;5030569;28;20034;-66
2021/12/04 05:33:07;;;;;;;2.50;0.80;;;19.20;59.80;;;;;;5014423;28;20025;-66
2021/12/04 05:35:33;;;;;;;2.47;0.68;;;19.20;59.80;;;;;;5030685;28;20042;-66
2021/12/04 05:37:58;;;;;;;4.72;1.10;;;19.20;60.80;;;;;;5030662;28;20029;-66
2021/12/04 05:40:24;;;;;;;3.08;1.00;;;19.20;60.80;;;;;;5030403;28;20596;-66
2021/12/04 05:42:50;;;;;;;3.72;0.90;;;19.20;59.80;;;;;;5024764;28;20049;-66
2021/12/04 05:45:21;;;;;;;3.70;1.00;;;19.20;59.80;;;;;;5031676;28;20037;-66
2021/12/04 05:48:10;;;;;;;5.15;1.00;;;19.20;59.80;;;;;;5032717;28;20411;-66
2021/12/04 05:53:27;;;;;;;1.55;0.80;;;19.20;59.80;;;;;;5052489;28;20489;-66
2021/12/04 05:58:29;;;;;;;3.42;0.80;;;19.10;59.80;;;;;;5051685;28;20032;-66
2021/12/04 06:00:57;;;;;;;3.70;1.08;;;19.10;59.80;;;;;;5044505;28;20063;-65
2021/12/04 06:03:23;;;;;;;1.13;0.50;;;19.10;59.80;;;;;;5038513;28;20379;-66
2021/12/04 06:05:49;;;;;;;1.75;0.70;;;19.20;59.90;;;;;;5043197;28;20501;-66
2021/12/04 06:08:14;;;;;;;2.63;0.88;;;19.20;59.90;;;;;;5048676;28;20449;-65
2021/12/04 06:10:40;;;;;;;1.80;0.82;;;19.20;59.90;;;;;;5046408;28;20025;-65
2021/12/04 06:13:06;;;;;;;3.20;0.85;;;19.20;59.90;;;;;;5046868;28;20371;-65
2021/12/04 06:15:32;;;;;;;2.92;1.00;;;19.20;59.90;;;;;;5046781;28;20098;-65
2021/12/04 06:17:57;;;;;;;2.63;0.60;;;19.20;59.80;;;;;;5043476;28;20103;-66
2021/12/04 06:23:07;;;;;;;5.55;0.90;;;19.20;59.80;;;;;;5042885;28;20099;-66
2021/12/04 06:25:33;;;;;;;2.55;1.05;;;19.20;59.80;;;;;;5043291;28;20017;-66
2021/12/04 06:27:58;;;;;;;2.22;1.00;;;19.20;59.80;;;;;;5046451;28;20025;-66
2021/12/04 06:30:25;;;;;;;2.78;0.70;;;19.20;59.80;;;;;;5046584;28;20033;-66
2021/12/04 06:32:52;;;;;;;2.65;0.85;;;19.10;59.70;;;;;;5042709;28;20024;-66
2021/12/04 06:35:18;;;;;;;3.30;0.98;;;19.20;59.80;;;;;;5042054;28;20025;-66
2021/12/04 06:37:44;;;;;;;1.38;0.90;;;19.20;59.80;;;;;;5043742;28;20411;-66
2021/12/04 06:40:13;;;;;;;3.15;1.05;;;19.20;59.80;;;;;;5046513;28;20028;-66
2021/12/04 06:42:40;;;;;;;2.00;0.77;;;19.20;59.80;;;;;;5045472;28;20099;-66
2021/12/04 06:45:06;;;;;;;3.00;0.98;;;19.20;59.80;;;;;;5025328;28;20052;-66
2021/12/04 06:47:33;;;;;;;1.38;0.60;;;19.20;59.80;;;;;;5041761;28;20452;-66
2021/12/04 06:50:05;;;;;;;2.10;0.82;;;19.20;59.80;;;;;;5045911;28;20013;-66
2021/12/04 06:52:31;;;;;;;;;;;19.10;59.70;;;;;;5040974;28;20107;-66
2021/12/04 06:55:02;;;;;;;3.72;1.00;;;19.10;59.70;;;;;;5043137;28;19999;-66
2021/12/04 06:57:29;;;;;;;2.47;0.80;;;19.10;60.00;;;;;;5042776;28;20048;-66
2021/12/04 06:59:56;;;;;;;2.10;0.70;;;19.10;59.90;;;;;;5043591;28;20415;-66
2021/12/04 07:02:21;;;;;;;3.10;0.90;;;19.10;59.80;;;;;;5046294;28;20025;-66
2021/12/04 07:04:47;;;;;;;3.00;1.00;;;19.10;59.80;;;;;;5044530;28;20021;-66
2021/12/04 07:07:13;;;;;;;3.55;1.00;;;19.10;59.80;;;;;;5042169;28;20032;-66
2021/12/04 07:09:39;;;;;;;2.25;0.80;;;19.10;59.80;;;;;;5042241;28;20024;-66
2021/12/04 07:12:05;;;;;;;3.22;0.77;;;19.10;59.80;;;;;;5044591;28;20024;-66
2021/12/04 07:14:31;;;;;;;2.28;0.70;;;19.10;59.70;;;;;;5044468;28;20019;-66
2021/12/04 07:16:57;;;;;;;3.00;0.90;;;19.10;59.70;;;;;;5033905;28;20108;-66
2021/12/04 07:19:23;;;;;;;3.00;1.15;;;19.10;59.70;;;;;;5032641;28;20121;-66
2021/12/04 07:21:48;;;;;;;4.43;1.20;;;19.10;59.70;;;;;;5033315;28;20449;-66
2021/12/04 07:24:14;;;;;;;1.77;0.93;;;19.10;59.70;;;;;;5033997;28;20046;-66
2021/12/04 07:26:40;;;;;;;2.25;0.80;;;19.10;59.70;;;;;;5034171;28;20060;-66
2021/12/04 07:29:06;;;;;;;2.25;0.85;;;19.10;59.70;;;;;;5032729;28;20051;-66
2021/12/04 07:31:32;;;;;;;2.58;0.60;;;19.10;59.70;;;;;;5034275;28;20064;-66
2021/12/04 07:33:57;;;;;;;3.50;1.20;;;19.10;59.70;;;;;;5032958;28;20095;-66
2021/12/04 07:36:23;;;;;;;3.42;0.95;;;19.10;59.70;;;;;;5033953;28;20086;-66
2021/12/04 07:38:49;;;;;;;2.78;1.05;;;19.10;59.70;;;;;;5034083;28;20013;-66
2021/12/04 07:41:15;;;;;;;2.67;0.70;;;19.10;59.70;;;;;;5033034;28;20030;-66
2021/12/04 07:43:40;;;;;;;3.53;1.08;;;19.10;59.70;;;;;;5033917;28;20025;-66
2021/12/04 07:46:06;;;;;;;2.05;0.70;;;19.10;59.70;;;;;;5034170;28;20056;-66
2021/12/04 07:48:32;;;;;;;2.47;0.75;;;19.10;59.70;;;;;;5038469;28;20029;-65
2021/12/04 07:51:01;;;;;;;1.52;0.90;;;19.10;59.70;;;;;;5042290;28;20025;-65
2021/12/04 07:53:27;;;;;;;3.60;1.05;;;19.10;59.70;;;;;;5047045;28;20017;-66
2021/12/04 07:55:53;;;;;;;2.03;0.60;;;19.10;59.70;;;;;;5043302;28;20040;-66
2021/12/04 07:58:19;;;;;;;3.70;1.00;;;19.10;59.70;;;;;;5041102;28;20479;-66
2021/12/04 08:00:44;;;;;;;2.45;0.70;;;19.10;59.70;;;;;;5050298;28;20493;-65
2021/12/04 08:03:10;;;;;;;1.92;0.85;;;19.10;59.70;;;;;;5035915;28;20028;-66
2021/12/04 08:05:36;;;;;;;2.33;0.60;;;19.10;59.70;;;;;;5046597;28;20028;-66
2021/12/04 08:08:02;;;;;;;4.10;1.17;;;19.10;59.70;;;;;;5044177;28;20040;-66
2021/12/04 08:10:28;;;;;;;2.35;0.77;;;19.10;59.70;;;;;;5038391;28;20493;-66
2021/12/04 08:12:53;;;;;;;2.95;1.02;;;19.10;59.70;;;;;;5050094;28;20064;-66
2021/12/04 08:15:19;;;;;;;1.92;0.70;;;19.10;59.70;;;;;;5037995;28;20086;-66
2021/12/04 08:17:45;;;;;;;2.47;0.95;;;19.10;59.60;;;;;;5044371;28;20108;-66
2021/12/04 08:20:12;;;;;;;2.33;0.88;;;19.10;59.70;;;;;;5043639;28;20055;-66
2021/12/04 08:22:37;;;;;;;2.40;0.75;;;19.10;59.70;;;;;;5038196;28;20554;-66
2021/12/04 08:25:03;;;;;;;4.30;0.90;;;19.10;59.70;;;;;;5049723;28;20024;-66
2021/12/04 08:27:29;;;;;;;2.55;0.65;;;19.10;59.70;;;;;;5037156;28;20441;-66
2021/12/04 08:29:55;;;;;;;2.30;0.90;;;19.10;59.70;;;;;;5043137;28;20021;-66
2021/12/04 08:32:23;;;;;;;3.22;0.80;;;19.10;59.70;;;;;;5043885;28;20049;-66
2021/12/04 08:34:50;;;;;;;2.47;1.00;;;19.10;59.60;;;;;;5031622;28;20021;-66
2021/12/04 08:37:16;;;;;;;4.63;0.90;;;19.10;59.70;;;;;;5031808;28;20080;-66
2021/12/04 08:39:41;;;;;;;3.13;0.82;;;19.10;59.70;;;;;;5033080;28;20029;-66
2021/12/04 08:42:07;;;;;;;1.83;0.98;;;19.10;59.70;;;;;;5032916;28;20044;-66
2021/12/04 08:44:33;;;;;;;2.08;0.90;;;19.10;59.70;;;;;;5031604;28;20506;-66
2021/12/04 08:46:59;;;;;;;1.52;0.75;;;19.10;59.70;;;;;;5032441;28;20499;-66
2021/12/04 08:49:25;;;;;;;2.13;0.70;;;19.10;59.70;;;;;;5031870;28;20032;-66
2021/12/04 08:51:50;;;;;;;2.53;0.77;;;19.10;60.70;;;;;;5046548;28;20096;-66
2021/12/04 08:54:16;;;;;;;2.20;1.08;;;19.10;59.60;;;;;;5052675;28;20021;-66
2021/12/04 08:56:42;;;;;;;3.08;0.80;;;19.10;59.70;;;;;;5052720;28;20043;-66
2021/12/04 08:59:08;;;;;;;2.30;0.80;;;19.10;59.70;;;;;;5052498;28;20482;-66
2021/12/04 09:01:36;;;;;;;3.55;1.05;;;19.10;59.70;;;;;;5052353;28;20054;-66
2021/12/04 09:04:07;;;;;;;2.30;0.70;;;19.10;59.70;;;;;;5052314;28;20517;-66
2021/12/04 09:06:33;;;;;;;2.65;0.73;;;19.10;59.70;;;;;;5051404;28;20032;-66
2021/12/04 09:08:58;;;;;;;1.77;0.85;;;19.10;59.70;;;;;;5051020;28;20025;-66
2021/12/04 09:11:31;;;;;;;3.08;1.13;;;19.10;59.70;;;;;;5037976;28;20021;-66
2021/12/04 09:13:57;;;;;;;2.67;1.00;;;19.10;59.70;;;;;;5051102;28;20021;-66
2021/12/04 09:16:23;;;;;;;3.00;0.80;;;19.10;60.00;;;;;;5051982;28;20033;-66
2021/12/04 09:18:49;;;;;;;0.63;0.47;;;19.10;59.70;;;;;;5051309;28;20021;-66
2021/12/04 09:21:15;;;;;;;1.77;0.63;;;19.10;59.60;;;;;;5052163;28;20035;-66
2021/12/04 09:23:46;;;;;;;2.17;0.80;;;19.10;59.70;;;;;;5050984;28;20041;-66
2021/12/04 09:26:25;;;;;;;2.15;1.02;;;19.10;59.70;;;;;;5052187;28;20025;-66
2021/12/04 09:29:00;;;;;;;2.60;0.90;;;19.10;59.70;;;;;;5052411;28;20049;-66
2021/12/04 09:34:19;;;;;;;2.50;0.70;;;19.10;59.70;;;;;;5052108;28;20021;-66
2021/12/04 10:33:54;;;;;;;3.00;0.80;;;19.00;59.80;;;;;;5049877;28;20044;-66
2021/12/04 10:36:36;;;;;;;3.33;1.00;;;19.00;59.80;;;;;;5038153;28;20030;-66
2021/12/04 10:39:04;;;;;;;2.88;0.80;;;19.00;59.60;;;;;;5046952;28;20037;-66
2021/12/04 10:41:30;;;;;;;2.15;0.77;;;19.00;59.80;;;;;;5046929;28;20033;-66
2021/12/04 10:44:07;;;;;;;5.00;0.85;;;19.00;59.70;;;;;;5039067;28;20057;-66
2021/12/04 10:46:32;;;;;;;3.85;0.80;;;19.00;59.70;;;;;;5034153;28;20029;-66
2021/12/04 10:49:06;;;;;;;2.30;0.85;;;19.00;59.70;;;;;;5042294;28;20021;-66
2021/12/04 10:51:50;;;;;;;2.78;0.80;;;19.00;59.80;;;;;;5052582;28;20510;-66
2021/12/04 10:54:23;;;;;;;1.88;0.70;;;19.00;59.60;;;;;;5036925;28;20490;-66
2021/12/04 11:35:17;;;;;;;2.42;0.68;;;19.10;59.60;;;;;;5042023;28;20067;-71
2021/12/04 11:38:03;;;;;;;2.55;1.00;;;19.20;59.60;;;;;;5041413;28;20100;-71
2021/12/04 11:40:37;;;;;;;2.03;0.70;;;19.20;59.70;;;;;;5047082;28;20032;-71
2021/12/04 11:43:08;;;;;;;3.05;0.98;;;19.20;59.60;;;;;;5045616;28;20064;-70
2021/12/04 11:45:49;;;;;;;1.38;0.70;;;19.20;59.50;;;;;;5025496;28;20111;-70
2021/12/04 11:48:15;;;;;;;3.17;0.90;;;19.30;59.50;;;;;;5043786;28;20024;-70
2021/12/04 11:50:51;;;;;;;2.95;0.85;;;19.30;59.60;;;;;;5047638;28;20474;-68
2021/12/04 11:53:17;;;;;;;2.92;0.90;;;19.30;59.50;;;;;;5043807;28;20025;-69
2021/12/04 11:55:45;;;;;;;2.78;0.80;;;19.30;59.30;;;;;;5024110;28;20041;-67
2021/12/04 11:58:23;;;;;;;3.72;0.82;;;19.40;59.50;;;;;;5041039;28;20060;-67
2021/12/04 12:00:51;;;;;;;3.90;1.05;;;19.50;59.30;;;;;;5040999;28;20487;-67
2021/12/04 12:03:22;;;;;;;2.72;0.95;;;19.40;59.30;;;;;;5032298;28;20076;-67
2021/12/04 12:05:52;;;;;;;3.08;1.13;;;19.50;59.40;;;;;;5032714;28;20014;-68
2021/12/04 12:08:33;;;;;;;3.42;1.00;;;19.50;59.30;;;;;;5032884;28;20022;-68
2021/12/04 12:11:13;;;;;;;1.30;0.70;;;19.60;59.10;;;;;;5033580;28;20095;-68
2021/12/04 12:13:40;;;;;;;2.15;0.80;;;19.50;59.20;;;;;;5031865;28;20030;-68
2021/12/04 12:16:17;;;;;;;3.30;1.13;;;19.50;59.20;;;;;;5033849;28;20114;-68
2021/12/04 12:19:03;;;;;;;3.28;0.93;;;19.60;59.00;;;;;;5052671;28;20017;-68
2021/12/04 12:21:40;;;;;;;2.40;0.90;;;19.60;59.00;;;;;;5050108;28;20111;-68
2021/12/04 12:38:17;;;;;;;3.13;1.02;;;19.70;58.90;;;;;;5039526;28;20043;-68
2021/12/04 12:40:59;;;;;;;2.70;1.02;;;19.70;59.00;;;;;;5034453;28;20043;-67
2021/12/04 12:43:39;;;;;;;2.28;0.75;;;19.70;58.70;;;;;;5043144;28;20096;-68
2021/12/04 12:46:05;;;;;;;2.67;0.90;;;19.70;58.90;;;;;;5048194;28;20032;-67
2021/12/04 12:48:42;;;;;;;1.45;0.80;;;19.70;58.90;;;;;;5050646;28;20104;-67
2021/12/04 12:51:08;;;;;;;2.25;0.82;;;19.80;58.70;;;;;;5046332;28;20028;-67
2021/12/04 12:53:41;;;;;;;2.33;1.10;;;19.70;58.70;;;;;;5044861;28;20021;-67
2021/12/04 12:56:09;;;;;;;;;;;19.70;58.60;;;;;;5033539;28;20025;-67
2021/12/04 13:12:46;;;;;;;3.17;0.73;;;19.60;58.50;;;;;;5032656;28;20473;-67
2021/12/04 13:15:15;;;;;;;4.10;1.20;;;19.60;58.50;;;;;;5033176;28;20016;-67
2021/12/04 13:17:41;;;;;;;6.00;1.08;;;19.70;58.50;;;;;;5030083;28;20027;-68
2021/12/04 13:20:08;;;;;;;6.40;1.60;;;19.70;58.50;;;;;;5032198;28;20021;-67
2021/12/04 13:22:34;;;;;;;15.55;2.55;;;19.70;58.40;;;;;;5035837;28;20049;-67
2021/12/04 13:25:06;;;;;;;8.00;2.38;;;19.70;58.30;;;;;;5043297;28;20037;-67
2021/12/04 13:30:08;;;;;;;9.70;2.67;;;19.70;58.30;;;;;;5040253;28;20518;-67
2021/12/04 13:32:37;;;;;;;8.98;2.00;;;19.70;58.10;;;;;;5038534;28;20021;-67
2021/12/04 13:35:07;;;;;;;8.07;1.60;;;19.70;58.20;;;;;;5046304;28;20018;-67
2021/12/04 13:37:33;;;;;;;9.30;1.98;;;19.70;58.20;;;;;;5039701;28;20026;-67
2021/12/04 13:40:02;;;;;;;11.27;2.10;;;19.70;58.20;;;;;;5038892;28;20024;-67
2021/12/04 13:42:28;;;;;;;5.68;1.80;;;19.70;58.10;;;;;;5038830;28;20014;-67
2021/12/04 13:44:58;;;;;;;7.30;1.50;;;19.70;58.10;;;;;;5042213;28;20039;-67
2021/12/04 13:47:25;;;;;;;7.10;2.17;;;19.70;58.00;;;;;;5043328;28;20112;-67
2021/12/04 13:50:06;;;;;;;10.30;2.00;;;19.70;58.00;;;;;;5039887;28;20017;-67
2021/12/04 13:52:32;;;;;;;6.00;1.58;;;19.70;58.00;;;;;;5038027;28;20363;-67
2021/12/04 13:55:08;;;;;;;7.75;1.75;;;19.70;58.00;;;;;;5022558;28;20066;-67
2021/12/04 13:57:38;;;;;;;3.83;1.25;;;19.70;58.00;;;;;;5023028;28;20104;-67
2021/12/04 14:00:04;;;;;;;7.72;1.75;;;19.70;57.90;;;;;;5039838;28;20097;-67
2021/12/04 14:02:30;;;;;;;7.40;1.85;;;19.70;57.90;;;;;;5039624;28;20024;-67
2021/12/04 14:05:04;;;;;;;5.95;1.85;;;19.70;57.80;;;;;;5040651;28;20047;-67
2021/12/04 14:07:30;;;;;;;7.18;1.20;;;19.70;57.80;;;;;;5043163;28;20023;-67
2021/12/04 14:09:56;;;;;;;6.97;1.50;;;19.60;57.70;;;;;;5037040;28;20519;-67
2021/12/04 14:12:22;;;;;;;5.20;1.65;;;19.70;57.80;;;;;;5043070;28;20056;-67
2021/12/04 14:14:48;;;;;;;7.75;1.88;;;19.70;57.70;;;;;;5040646;28;20013;-67
2021/12/04 14:17:16;;;;;;;6.97;1.98;;;19.70;57.70;;;;;;5038426;28;20417;-67
2021/12/04 14:19:42;;;;;;;4.20;1.60;;;19.70;57.70;;;;;;5039561;28;20391;-67
2021/12/04 14:22:08;;;;;;;7.43;1.90;;;19.70;57.70;;;;;;5046839;28;20029;-67
2021/12/04 14:24:41;;;;;;;7.65;1.83;;;19.70;57.60;;;;;;5039463;28;20048;-67
2021/12/04 14:27:07;;;;;;;4.30;1.33;;;19.60;57.60;;;;;;5044011;28;20017;-67
2021/12/04 14:29:34;;;;;;;3.78;1.30;;;19.70;57.50;;;;;;5046665;28;20103;-67
2021/12/04 14:32:00;;;;;;;5.07;1.95;;;19.60;57.50;;;;;;5042795;28;20123;-67
2021/12/04 14:34:26;;;;;;;4.72;1.27;;;19.70;57.50;;;;;;5042097;28;20096;-67
2021/12/04 14:37:07;;;;;;;7.50;1.98;;;19.60;57.50;;;;;;5042375;28;20029;-67
2021/12/04 14:39:32;;;;;;;5.63;1.40;;;19.70;57.40;;;;;;5045526;28;20017;-67
2021/12/04 14:41:58;;;;;;;4.72;1.50;;;19.70;57.50;;;;;;5043070;28;20502;-67
2021/12/04 14:44:24;;;;;;;4.68;1.30;;;19.60;57.40;;;;;;5042879;28;20152;-67
2021/12/04 14:46:50;;;;;;;4.38;1.38;;;19.60;57.40;;;;;;5043298;28;20021;-67
2021/12/04 14:49:15;;;;;;;6.38;1.08;;;19.70;57.40;;;;;;5028556;28;20025;-67
2021/12/04 14:51:41;;;;;;;4.60;1.27;;;19.60;57.30;;;;;;5052049;28;20150;-67
2021/12/04 14:54:07;;;;;;;5.22;1.35;;;19.70;57.30;;;;;;5041999;28;20371;-67
2021/12/04 14:56:33;;;;;;;2.63;1.20;;;19.70;57.30;;;;;;5041857;28;20543;-67
2021/12/04 14:58:58;;;;;;;4.93;1.30;;;19.60;57.20;;;;;;5043818;28;20036;-67
2021/12/04 15:01:27;;;;;;;2.97;1.38;;;19.70;58.30;;;;;;5046254;28;20496;-67
2021/12/04 15:03:58;;;;;;;5.30;1.75;;;19.70;57.30;;;;;;5027585;28;20501;-67
2021/12/04 15:06:25;;;;;;;3.78;1.30;;;19.60;57.20;;;;;;5041442;28;20017;-67
2021/12/04 15:09:03;;;;;;;5.00;1.33;;;19.60;57.20;;;;;;5046127;28;20474;-67
2021/12/04 15:11:34;;;;;;;2.55;1.00;;;19.70;57.30;;;;;;5044769;28;20023;-67
2021/12/04 15:14:14;;;;;;;3.72;1.10;;;19.70;57.20;;;;;;5043034;28;20425;-67
2021/12/04 15:16:51;;;;;;;4.07;1.15;;;19.70;57.10;;;;;;5041351;28;20024;-67
2021/12/04 15:19:23;;;;;;;5.05;1.35;;;19.70;57.20;;;;;;5040893;28;20026;-67
2021/12/04 15:22:02;;;;;;;3.85;1.13;;;19.70;57.20;;;;;;5049973;28;20512;-67
2021/12/04 15:24:39;;;;;;;3.92;1.35;;;19.60;57.10;;;;;;5042049;28;20104;-67
2021/12/04 15:27:08;;;;;;;4.13;1.40;;;19.60;57.00;;;;;;5043644;28;20486;-67
2021/12/04 15:29:34;;;;;;;4.28;1.30;;;19.70;57.10;;;;;;5028232;28;20024;-67
2021/12/04 15:32:01;;;;;;;4.05;1.20;;;19.60;57.10;;;;;;5042909;28;20025;-67
2021/12/04 15:34:34;;;;;;;2.30;0.90;;;19.60;57.00;;;;;;5024135;28;20021;-67
2021/12/04 15:37:03;;;;;;;3.42;1.33;;;19.70;57.00;;;;;;5042459;28;20021;-67
2021/12/04 15:39:32;;;;;;;2.50;0.90;;;19.60;57.00;;;;;;5045501;28;20028;-67
2021/12/04 15:47:16;;;;;;;3.63;1.25;;;19.60;56.90;;;;;;5041886;28;20450;-67
2021/12/04 15:55:16;;;;;;;3.03;1.10;;;19.60;56.90;;;;;;5041854;28;20394;-67
2021/12/04 15:57:55;;;;;;;2.83;1.20;;;19.70;56.80;;;;;;5044996;28;20025;-67
2021/12/04 16:00:23;;;;;;;3.58;1.45;;;19.60;56.70;;;;;;5036998;28;20021;-66
2021/12/04 16:02:54;;;;;;;2.95;1.10;;;19.60;56.80;;;;;;5040883;28;20021;-67
2021/12/04 16:05:21;;;;;;;2.83;1.02;;;19.60;56.80;;;;;;5040845;28;20049;-67
2021/12/04 16:08:07;;;;;;;3.65;1.00;;;19.60;56.70;;;;;;5039810;28;20029;-67
2021/12/04 16:10:34;;;;;;;2.47;0.88;;;19.70;56.60;;;;;;5031031;28;20105;-67
2021/12/04 16:13:00;;;;;;;3.65;1.40;;;19.60;56.70;;;;;;5032349;28;20036;-67
2021/12/04 16:15:25;;;;;;;2.55;1.08;;;19.60;56.70;;;;;;5034163;28;20017;-67